CCB3 weather

Amherst Heliport
Amherst, Nova Scotia, Canada

Public forecast

Using degrees Celsius for public forecast. Weather courtesy of forecast.io.

METAR (pilot weather report)

Closest report is Greater Moncton International Airport, 26.3 nm (48.7 km) NW. Retrieved 2019/08/21 14:00 UTC (53 minutes ago):

CYQM 211400Z 24007KT 15SM SCT260 26/16 A2999 RMK CI4 SLP157 DENSITY ALT 1500FT

TAF (pilot weather forecast)

Closest forecast is Greater Moncton International Airport, 26.3 nm (48.7 km) NW. Retrieved 2019/08/21 12:45 UTC (2 hours ago):

TAF CYQM 211142Z 2112/2212 22006KT P6SM SCT260 BECMG 2114/2116 22012KT FM212300 20010KT P6SM BKN180 FM220300 20012G22KT P6SM BKN110 FM220600 21012G22KT P6SM -RA OVC070 FM220800 16015G25KT 4SM -RA BR OVC008 FM221100 19012G22KT P6SM -SHRA BKN030 PROB30 2211/2212 2SM TSRA BR BKN008 OVC030CB RMK NXT FCST BY 211800Z